sensor_id;sensor_type;location;lat;lon;timestamp;P1;durP1;ratioP1;P2;durP2;ratioP2
57573;SDS011;43409;48.858;21.906;2022-07-23T00:02:24;3.10;;;2.90;;
57573;SDS011;43409;48.858;21.906;2022-07-23T00:04:49;3.55;;;3.28;;
57573;SDS011;43409;48.858;21.906;2022-07-23T00:07:15;4.50;;;3.30;;
57573;SDS011;43409;48.858;21.906;2022-07-23T00:09:40;5.95;;;3.15;;
57573;SDS011;43409;48.858;21.906;2022-07-23T00:12:05;5.15;;;3.35;;
57573;SDS011;43409;48.858;21.906;2022-07-23T00:14:31;3.85;;;3.30;;
57573;SDS011;43409;48.858;21.906;2022-07-23T00:16:56;3.50;;;3.20;;
57573;SDS011;43409;48.858;21.906;2022-07-23T00:19:22;3.42;;;3.00;;
57573;SDS011;43409;48.858;21.906;2022-07-23T00:21:47;8.82;;;3.30;;
57573;SDS011;43409;48.858;21.906;2022-07-23T00:24:13;4.35;;;3.38;;
57573;SDS011;43409;48.858;21.906;2022-07-23T00:26:38;7.28;;;3.65;;
57573;SDS011;43409;48.858;21.906;2022-07-23T00:29:03;3.80;;;3.53;;
57573;SDS011;43409;48.858;21.906;2022-07-23T00:31:29;3.60;;;3.10;;
57573;SDS011;43409;48.858;21.906;2022-07-23T00:33:54;7.32;;;4.03;;
57573;SDS011;43409;48.858;21.906;2022-07-23T00:36:22;5.28;;;3.92;;
57573;SDS011;43409;48.858;21.906;2022-07-23T00:38:48;7.18;;;3.58;;
57573;SDS011;43409;48.858;21.906;2022-07-23T00:41:14;8.75;;;4.18;;
57573;SDS011;43409;48.858;21.906;2022-07-23T00:43:40;4.10;;;3.70;;
57573;SDS011;43409;48.858;21.906;2022-07-23T00:46:05;4.38;;;3.97;;
57573;SDS011;43409;48.858;21.906;2022-07-23T00:48:31;4.25;;;3.55;;
57573;SDS011;43409;48.858;21.906;2022-07-23T00:50:56;5.72;;;3.78;;
57573;SDS011;43409;48.858;21.906;2022-07-23T00:53:22;3.90;;;3.60;;
57573;SDS011;43409;48.858;21.906;2022-07-23T00:55:49;4.32;;;3.90;;
57573;SDS011;43409;48.858;21.906;2022-07-23T00:58:15;5.47;;;3.90;;
57573;SDS011;43409;48.858;21.906;2022-07-23T01:00:41;4.68;;;3.65;;
57573;SDS011;43409;48.858;21.906;2022-07-23T01:03:07;4.57;;;3.95;;
57573;SDS011;43409;48.858;21.906;2022-07-23T01:05:33;5.55;;;4.22;;
57573;SDS011;43409;48.858;21.906;2022-07-23T01:07:58;5.90;;;4.22;;
57573;SDS011;43409;48.858;21.906;2022-07-23T01:10:24;7.07;;;3.92;;
57573;SDS011;43409;48.858;21.906;2022-07-23T01:12:56;5.65;;;3.90;;
57573;SDS011;43409;48.858;21.906;2022-07-23T01:15:33;4.18;;;3.70;;
57573;SDS011;43409;48.858;21.906;2022-07-23T01:18:00;4.18;;;3.85;;
57573;SDS011;43409;48.858;21.906;2022-07-23T01:20:27;4.90;;;4.05;;
57573;SDS011;43409;48.858;21.906;2022-07-23T01:22:53;7.07;;;3.97;;
57573;SDS011;43409;48.858;21.906;2022-07-23T01:25:19;4.25;;;3.85;;
57573;SDS011;43409;48.858;21.906;2022-07-23T01:27:45;7.93;;;4.57;;
57573;SDS011;43409;48.858;21.906;2022-07-23T01:30:10;4.95;;;3.70;;
57573;SDS011;43409;48.858;21.906;2022-07-23T01:32:36;4.65;;;3.58;;
57573;SDS011;43409;48.858;21.906;2022-07-23T01:35:02;4.10;;;3.70;;
57573;SDS011;43409;48.858;21.906;2022-07-23T01:37:28;5.18;;;4.03;;
57573;SDS011;43409;48.858;21.906;2022-07-23T01:39:53;4.63;;;4.22;;
57573;SDS011;43409;48.858;21.906;2022-07-23T01:42:19;4.00;;;3.70;;
57573;SDS011;43409;48.858;21.906;2022-07-23T01:44:44;4.57;;;3.90;;
57573;SDS011;43409;48.858;21.906;2022-07-23T01:47:10;4.53;;;4.13;;
57573;SDS011;43409;48.858;21.906;2022-07-23T01:49:35;4.47;;;3.80;;
57573;SDS011;43409;48.858;21.906;2022-07-23T01:52:00;5.85;;;4.05;;
57573;SDS011;43409;48.858;21.906;2022-07-23T01:54:30;4.35;;;3.90;;
57573;SDS011;43409;48.858;21.906;2022-07-23T01:56:57;6.78;;;4.18;;
57573;SDS011;43409;48.858;21.906;2022-07-23T01:59:23;6.25;;;4.10;;
57573;SDS011;43409;48.858;21.906;2022-07-23T02:01:49;7.65;;;4.57;;
57573;SDS011;43409;48.858;21.906;2022-07-23T02:04:18;4.07;;;3.70;;
57573;SDS011;43409;48.858;21.906;2022-07-23T02:06:43;6.57;;;4.30;;
57573;SDS011;43409;48.858;21.906;2022-07-23T02:09:09;7.22;;;4.45;;
57573;SDS011;43409;48.858;21.906;2022-07-23T02:11:34;4.93;;;3.53;;
57573;SDS011;43409;48.858;21.906;2022-07-23T02:14:00;6.65;;;4.10;;
57573;SDS011;43409;48.858;21.906;2022-07-23T02:16:25;5.47;;;3.92;;
57573;SDS011;43409;48.858;21.906;2022-07-23T02:18:51;6.10;;;4.40;;
57573;SDS011;43409;48.858;21.906;2022-07-23T02:21:16;5.78;;;4.03;;
57573;SDS011;43409;48.858;21.906;2022-07-23T02:23:41;4.38;;;3.72;;
57573;SDS011;43409;48.858;21.906;2022-07-23T02:26:07;12.30;;;3.92;;
57573;SDS011;43409;48.858;21.906;2022-07-23T02:28:32;4.45;;;4.05;;
57573;SDS011;43409;48.858;21.906;2022-07-23T02:30:58;4.78;;;4.20;;
57573;SDS011;43409;48.858;21.906;2022-07-23T02:33:23;3.80;;;3.50;;
57573;SDS011;43409;48.858;21.906;2022-07-23T02:35:49;4.32;;;3.90;;
57573;SDS011;43409;48.858;21.906;2022-07-23T02:38:14;4.40;;;4.00;;
57573;SDS011;43409;48.858;21.906;2022-07-23T02:40:39;3.75;;;3.45;;
57573;SDS011;43409;48.858;21.906;2022-07-23T02:43:05;5.30;;;3.60;;
57573;SDS011;43409;48.858;21.906;2022-07-23T02:45:30;3.88;;;3.58;;
57573;SDS011;43409;48.858;21.906;2022-07-23T02:47:56;4.13;;;3.72;;
57573;SDS011;43409;48.858;21.906;2022-07-23T02:50:21;6.18;;;3.63;;
57573;SDS011;43409;48.858;21.906;2022-07-23T02:52:47;3.70;;;3.40;;
57573;SDS011;43409;48.858;21.906;2022-07-23T02:55:12;7.15;;;3.92;;
57573;SDS011;43409;48.858;21.906;2022-07-23T02:57:37;3.47;;;3.20;;
57573;SDS011;43409;48.858;21.906;2022-07-23T03:00:03;4.05;;;3.50;;
57573;SDS011;43409;48.858;21.906;2022-07-23T03:02:30;4.32;;;3.25;;
57573;SDS011;43409;48.858;21.906;2022-07-23T03:04:56;4.60;;;3.65;;
57573;SDS011;43409;48.858;21.906;2022-07-23T03:07:21;6.25;;;3.70;;
57573;SDS011;43409;48.858;21.906;2022-07-23T03:09:46;4.75;;;3.22;;
57573;SDS011;43409;48.858;21.906;2022-07-23T03:12:12;3.58;;;3.28;;
57573;SDS011;43409;48.858;21.906;2022-07-23T03:14:38;4.40;;;2.92;;
57573;SDS011;43409;48.858;21.906;2022-07-23T03:17:03;4.05;;;3.40;;
57573;SDS011;43409;48.858;21.906;2022-07-23T03:19:29;6.35;;;3.60;;
57573;SDS011;43409;48.858;21.906;2022-07-23T03:21:54;3.78;;;3.25;;
57573;SDS011;43409;48.858;21.906;2022-07-23T03:24:19;3.97;;;3.30;;
57573;SDS011;43409;48.858;21.906;2022-07-23T03:26:45;5.78;;;3.20;;
57573;SDS011;43409;48.858;21.906;2022-07-23T03:29:10;3.45;;;3.10;;
57573;SDS011;43409;48.858;21.906;2022-07-23T03:31:36;3.40;;;3.10;;
57573;SDS011;43409;48.858;21.906;2022-07-23T03:34:01;4.15;;;3.28;;
57573;SDS011;43409;48.858;21.906;2022-07-23T03:36:26;8.75;;;3.30;;
57573;SDS011;43409;48.858;21.906;2022-07-23T03:38:52;5.25;;;2.85;;
57573;SDS011;43409;48.858;21.906;2022-07-23T03:41:18;3.42;;;2.95;;
57573;SDS011;43409;48.858;21.906;2022-07-23T03:43:45;3.10;;;2.80;;
57573;SDS011;43409;48.858;21.906;2022-07-23T03:46:11;5.72;;;2.85;;
57573;SDS011;43409;48.858;21.906;2022-07-23T03:48:36;3.35;;;3.05;;
57573;SDS011;43409;48.858;21.906;2022-07-23T03:51:02;3.67;;;3.38;;
57573;SDS011;43409;48.858;21.906;2022-07-23T03:53:27;8.13;;;3.10;;
57573;SDS011;43409;48.858;21.906;2022-07-23T03:55:53;4.38;;;3.03;;
57573;SDS011;43409;48.858;21.906;2022-07-23T03:58:18;6.25;;;3.22;;
57573;SDS011;43409;48.858;21.906;2022-07-23T04:00:44;3.38;;;3.05;;
57573;SDS011;43409;48.858;21.906;2022-07-23T04:03:09;9.63;;;3.35;;
57573;SDS011;43409;48.858;21.906;2022-07-23T04:05:35;5.05;;;3.08;;
57573;SDS011;43409;48.858;21.906;2022-07-23T04:08:00;4.57;;;3.13;;
57573;SDS011;43409;48.858;21.906;2022-07-23T04:10:25;2.90;;;2.53;;
57573;SDS011;43409;48.858;21.906;2022-07-23T04:12:51;3.55;;;2.97;;
57573;SDS011;43409;48.858;21.906;2022-07-23T04:15:16;2.90;;;2.67;;
57573;SDS011;43409;48.858;21.906;2022-07-23T04:17:41;9.52;;;2.80;;
57573;SDS011;43409;48.858;21.906;2022-07-23T04:20:08;6.50;;;3.00;;
57573;SDS011;43409;48.858;21.906;2022-07-23T04:22:35;4.13;;;2.85;;
57573;SDS011;43409;48.858;21.906;2022-07-23T04:25:00;3.00;;;2.78;;
57573;SDS011;43409;48.858;21.906;2022-07-23T04:27:26;11.40;;;3.75;;
57573;SDS011;43409;48.858;21.906;2022-07-23T04:29:51;3.45;;;3.15;;
57573;SDS011;43409;48.858;21.906;2022-07-23T04:32:16;3.10;;;2.90;;
57573;SDS011;43409;48.858;21.906;2022-07-23T04:34:42;4.10;;;2.65;;
57573;SDS011;43409;48.858;21.906;2022-07-23T04:37:07;4.57;;;2.65;;
57573;SDS011;43409;48.858;21.906;2022-07-23T04:39:33;2.50;;;2.30;;
57573;SDS011;43409;48.858;21.906;2022-07-23T04:41:58;10.45;;;2.97;;
57573;SDS011;43409;48.858;21.906;2022-07-23T04:44:24;6.00;;;2.83;;
57573;SDS011;43409;48.858;21.906;2022-07-23T04:46:49;4.97;;;2.58;;
57573;SDS011;43409;48.858;21.906;2022-07-23T04:49:14;5.30;;;2.42;;
57573;SDS011;43409;48.858;21.906;2022-07-23T04:51:40;2.92;;;2.63;;
57573;SDS011;43409;48.858;21.906;2022-07-23T04:54:05;4.68;;;2.70;;
57573;SDS011;43409;48.858;21.906;2022-07-23T04:56:31;5.80;;;2.88;;
57573;SDS011;43409;48.858;21.906;2022-07-23T04:58:56;2.95;;;2.40;;
57573;SDS011;43409;48.858;21.906;2022-07-23T05:01:22;3.72;;;2.83;;
57573;SDS011;43409;48.858;21.906;2022-07-23T05:03:47;4.47;;;2.65;;
57573;SDS011;43409;48.858;21.906;2022-07-23T05:06:13;2.75;;;2.55;;
57573;SDS011;43409;48.858;21.906;2022-07-23T05:08:39;7.07;;;2.72;;
57573;SDS011;43409;48.858;21.906;2022-07-23T05:11:04;3.42;;;3.03;;
57573;SDS011;43409;48.858;21.906;2022-07-23T05:13:30;4.63;;;2.78;;
57573;SDS011;43409;48.858;21.906;2022-07-23T05:15:55;2.70;;;2.50;;
57573;SDS011;43409;48.858;21.906;2022-07-23T05:18:21;5.18;;;2.70;;
57573;SDS011;43409;48.858;21.906;2022-07-23T05:20:46;3.95;;;2.92;;
57573;SDS011;43409;48.858;21.906;2022-07-23T05:23:12;3.17;;;2.72;;
57573;SDS011;43409;48.858;21.906;2022-07-23T05:25:37;2.60;;;2.40;;
57573;SDS011;43409;48.858;21.906;2022-07-23T05:28:03;3.55;;;2.67;;
57573;SDS011;43409;48.858;21.906;2022-07-23T05:30:28;3.13;;;2.88;;
57573;SDS011;43409;48.858;21.906;2022-07-23T05:32:54;5.50;;;2.95;;
57573;SDS011;43409;48.858;21.906;2022-07-23T05:35:19;3.05;;;2.80;;
57573;SDS011;43409;48.858;21.906;2022-07-23T05:37:45;3.00;;;2.70;;
57573;SDS011;43409;48.858;21.906;2022-07-23T05:40:10;3.00;;;2.70;;
57573;SDS011;43409;48.858;21.906;2022-07-23T05:42:37;3.33;;;2.97;;
57573;SDS011;43409;48.858;21.906;2022-07-23T05:45:03;2.90;;;2.70;;
57573;SDS011;43409;48.858;21.906;2022-07-23T05:47:38;3.15;;;2.85;;
57573;SDS011;43409;48.858;21.906;2022-07-23T05:50:13;3.30;;;2.95;;
57573;SDS011;43409;48.858;21.906;2022-07-23T05:52:40;5.18;;;2.53;;
57573;SDS011;43409;48.858;21.906;2022-07-23T05:55:07;2.80;;;2.53;;
57573;SDS011;43409;48.858;21.906;2022-07-23T05:57:33;3.70;;;3.03;;
57573;SDS011;43409;48.858;21.906;2022-07-23T05:59:58;5.20;;;2.85;;
57573;SDS011;43409;48.858;21.906;2022-07-23T06:02:24;4.53;;;3.15;;
57573;SDS011;43409;48.858;21.906;2022-07-23T06:04:49;4.30;;;2.97;;
57573;SDS011;43409;48.858;21.906;2022-07-23T06:07:15;4.18;;;2.78;;
57573;SDS011;43409;48.858;21.906;2022-07-23T06:09:40;4.97;;;2.97;;
57573;SDS011;43409;48.858;21.906;2022-07-23T06:12:06;5.47;;;3.10;;
57573;SDS011;43409;48.858;21.906;2022-07-23T06:14:31;3.85;;;2.70;;
57573;SDS011;43409;48.858;21.906;2022-07-23T06:16:57;4.63;;;3.03;;
57573;SDS011;43409;48.858;21.906;2022-07-23T06:19:22;2.55;;;2.30;;
57573;SDS011;43409;48.858;21.906;2022-07-23T06:21:47;8.70;;;3.00;;
57573;SDS011;43409;48.858;21.906;2022-07-23T06:24:13;6.07;;;3.17;;
57573;SDS011;43409;48.858;21.906;2022-07-23T06:26:38;14.68;;;3.50;;
57573;SDS011;43409;48.858;21.906;2022-07-23T06:29:04;4.78;;;3.15;;
57573;SDS011;43409;48.858;21.906;2022-07-23T06:31:29;3.10;;;2.80;;
57573;SDS011;43409;48.858;21.906;2022-07-23T06:33:55;3.67;;;2.97;;
57573;SDS011;43409;48.858;21.906;2022-07-23T06:36:20;7.65;;;2.60;;
57573;SDS011;43409;48.858;21.906;2022-07-23T06:38:45;4.32;;;2.97;;
57573;SDS011;43409;48.858;21.906;2022-07-23T06:41:11;4.05;;;2.72;;
57573;SDS011;43409;48.858;21.906;2022-07-23T06:43:36;5.05;;;3.15;;
57573;SDS011;43409;48.858;21.906;2022-07-23T06:46:02;4.40;;;2.65;;
57573;SDS011;43409;48.858;21.906;2022-07-23T06:48:27;3.33;;;3.00;;
57573;SDS011;43409;48.858;21.906;2022-07-23T06:50:54;3.70;;;3.00;;
57573;SDS011;43409;48.858;21.906;2022-07-23T06:53:20;2.97;;;2.78;;
57573;SDS011;43409;48.858;21.906;2022-07-23T06:55:46;5.10;;;3.17;;
57573;SDS011;43409;48.858;21.906;2022-07-23T06:58:11;3.30;;;2.97;;
57573;SDS011;43409;48.858;21.906;2022-07-23T07:00:38;3.40;;;2.80;;
57573;SDS011;43409;48.858;21.906;2022-07-23T07:03:04;3.53;;;3.15;;
57573;SDS011;43409;48.858;21.906;2022-07-23T07:05:30;9.05;;;3.22;;
57573;SDS011;43409;48.858;21.906;2022-07-23T07:07:55;5.57;;;3.15;;
57573;SDS011;43409;48.858;21.906;2022-07-23T07:10:21;6.22;;;3.22;;
57573;SDS011;43409;48.858;21.906;2022-07-23T07:12:46;6.00;;;3.08;;
57573;SDS011;43409;48.858;21.906;2022-07-23T07:15:12;5.80;;;3.00;;
57573;SDS011;43409;48.858;21.906;2022-07-23T07:17:37;9.70;;;3.28;;
57573;SDS011;43409;48.858;21.906;2022-07-23T07:20:04;5.50;;;3.13;;
57573;SDS011;43409;48.858;21.906;2022-07-23T07:22:30;8.07;;;3.33;;
57573;SDS011;43409;48.858;21.906;2022-07-23T07:24:55;7.07;;;3.30;;
57573;SDS011;43409;48.858;21.906;2022-07-23T07:27:21;3.95;;;3.25;;
57573;SDS011;43409;48.858;21.906;2022-07-23T07:29:46;14.15;;;3.13;;
57573;SDS011;43409;48.858;21.906;2022-07-23T07:32:11;6.30;;;3.13;;
57573;SDS011;43409;48.858;21.906;2022-07-23T07:34:37;3.97;;;3.20;;
57573;SDS011;43409;48.858;21.906;2022-07-23T07:37:02;5.60;;;3.20;;
57573;SDS011;43409;48.858;21.906;2022-07-23T07:39:28;4.82;;;3.10;;
57573;SDS011;43409;48.858;21.906;2022-07-23T07:41:53;6.40;;;3.42;;
57573;SDS011;43409;48.858;21.906;2022-07-23T07:44:18;3.78;;;3.10;;
57573;SDS011;43409;48.858;21.906;2022-07-23T07:46:44;4.80;;;3.17;;
57573;SDS011;43409;48.858;21.906;2022-07-23T07:49:09;9.18;;;3.00;;
57573;SDS011;43409;48.858;21.906;2022-07-23T07:51:35;6.25;;;3.00;;
57573;SDS011;43409;48.858;21.906;2022-07-23T07:54:00;6.60;;;3.50;;
57573;SDS011;43409;48.858;21.906;2022-07-23T07:56:26;3.45;;;2.92;;
57573;SDS011;43409;48.858;21.906;2022-07-23T07:58:52;4.63;;;3.08;;
57573;SDS011;43409;48.858;21.906;2022-07-23T08:01:17;3.20;;;2.90;;
57573;SDS011;43409;48.858;21.906;2022-07-23T08:03:44;3.22;;;2.80;;
57573;SDS011;43409;48.858;21.906;2022-07-23T08:06:10;5.22;;;3.25;;
57573;SDS011;43409;48.858;21.906;2022-07-23T08:08:35;3.25;;;2.88;;
57573;SDS011;43409;48.858;21.906;2022-07-23T08:11:01;4.20;;;2.83;;
57573;SDS011;43409;48.858;21.906;2022-07-23T08:13:26;3.40;;;3.10;;
57573;SDS011;43409;48.858;21.906;2022-07-23T08:15:51;3.30;;;3.00;;
57573;SDS011;43409;48.858;21.906;2022-07-23T08:18:18;3.63;;;2.83;;
57573;SDS011;43409;48.858;21.906;2022-07-23T08:20:44;5.63;;;3.20;;
57573;SDS011;43409;48.858;21.906;2022-07-23T08:23:09;5.07;;;3.00;;
57573;SDS011;43409;48.858;21.906;2022-07-23T08:25:36;6.13;;;3.10;;
57573;SDS011;43409;48.858;21.906;2022-07-23T08:28:06;6.57;;;3.15;;
57573;SDS011;43409;48.858;21.906;2022-07-23T08:30:33;7.63;;;3.35;;
57573;SDS011;43409;48.858;21.906;2022-07-23T08:33:01;3.03;;;2.80;;
57573;SDS011;43409;48.858;21.906;2022-07-23T08:35:28;5.60;;;3.20;;
57573;SDS011;43409;48.858;21.906;2022-07-23T08:37:56;3.35;;;3.00;;
57573;SDS011;43409;48.858;21.906;2022-07-23T08:40:22;3.50;;;3.20;;
57573;SDS011;43409;48.858;21.906;2022-07-23T08:42:50;7.75;;;3.20;;
57573;SDS011;43409;48.858;21.906;2022-07-23T08:45:17;3.60;;;3.30;;
57573;SDS011;43409;48.858;21.906;2022-07-23T08:47:45;4.13;;;3.28;;
57573;SDS011;43409;48.858;21.906;2022-07-23T08:50:16;3.42;;;3.15;;
57573;SDS011;43409;48.858;21.906;2022-07-23T08:52:41;5.97;;;3.20;;
57573;SDS011;43409;48.858;21.906;2022-07-23T08:55:07;3.35;;;2.85;;
57573;SDS011;43409;48.858;21.906;2022-07-23T08:57:33;3.05;;;2.80;;
57573;SDS011;43409;48.858;21.906;2022-07-23T08:59:59;3.22;;;2.92;;
57573;SDS011;43409;48.858;21.906;2022-07-23T09:02:25;5.70;;;3.70;;
57573;SDS011;43409;48.858;21.906;2022-07-23T09:04:50;6.03;;;3.00;;
57573;SDS011;43409;48.858;21.906;2022-07-23T09:07:15;5.43;;;3.55;;
57573;SDS011;43409;48.858;21.906;2022-07-23T09:09:41;5.28;;;3.33;;
57573;SDS011;43409;48.858;21.906;2022-07-23T09:12:07;3.90;;;2.83;;
57573;SDS011;43409;48.858;21.906;2022-07-23T09:14:41;7.25;;;3.08;;
57573;SDS011;43409;48.858;21.906;2022-07-23T09:17:16;3.78;;;3.20;;
57573;SDS011;43409;48.858;21.906;2022-07-23T09:19:43;4.38;;;3.10;;
57573;SDS011;43409;48.858;21.906;2022-07-23T09:27:52;9.95;;;3.67;;
57573;SDS011;43409;48.858;21.906;2022-07-23T09:30:23;5.47;;;3.40;;
57573;SDS011;43409;48.858;21.906;2022-07-23T09:35:50;4.15;;;3.40;;
57573;SDS011;43409;48.858;21.906;2022-07-23T09:38:21;3.20;;;2.70;;
57573;SDS011;43409;48.858;21.906;2022-07-23T09:41:04;6.03;;;2.90;;
57573;SDS011;43409;48.858;21.906;2022-07-23T09:43:31;3.17;;;2.90;;
57573;SDS011;43409;48.858;21.906;2022-07-23T09:48:55;6.63;;;3.03;;
57573;SDS011;43409;48.858;21.906;2022-07-23T09:51:21;3.53;;;3.10;;
57573;SDS011;43409;48.858;21.906;2022-07-23T09:53:48;3.58;;;3.28;;
57573;SDS011;43409;48.858;21.906;2022-07-23T09:56:13;3.65;;;3.35;;
57573;SDS011;43409;48.858;21.906;2022-07-23T09:58:40;5.07;;;3.28;;
57573;SDS011;43409;48.858;21.906;2022-07-23T10:01:16;6.28;;;3.45;;
57573;SDS011;43409;48.858;21.906;2022-07-23T10:03:41;5.25;;;3.35;;
57573;SDS011;43409;48.858;21.906;2022-07-23T10:06:12;5.03;;;3.50;;
57573;SDS011;43409;48.858;21.906;2022-07-23T10:08:42;3.72;;;3.05;;
57573;SDS011;43409;48.858;21.906;2022-07-23T10:11:12;3.30;;;3.10;;
57573;SDS011;43409;48.858;21.906;2022-07-23T10:13:39;3.95;;;3.50;;
57573;SDS011;43409;48.858;21.906;2022-07-23T10:16:22;3.35;;;3.05;;
57573;SDS011;43409;48.858;21.906;2022-07-23T10:18:48;2.85;;;2.65;;
57573;SDS011;43409;48.858;21.906;2022-07-23T10:21:16;3.85;;;3.22;;
57573;SDS011;43409;48.858;21.906;2022-07-23T10:23:47;4.32;;;3.30;;
57573;SDS011;43409;48.858;21.906;2022-07-23T10:29:13;3.72;;;3.25;;
57573;SDS011;43409;48.858;21.906;2022-07-23T10:34:29;3.90;;;3.33;;
57573;SDS011;43409;48.858;21.906;2022-07-23T10:42:49;3.85;;;3.47;;
57573;SDS011;43409;48.858;21.906;2022-07-23T10:47:49;6.68;;;3.45;;
57573;SDS011;43409;48.858;21.906;2022-07-23T10:50:25;9.63;;;3.78;;
57573;SDS011;43409;48.858;21.906;2022-07-23T10:55:43;3.65;;;3.38;;
57573;SDS011;43409;48.858;21.906;2022-07-23T10:58:10;5.40;;;3.45;;
57573;SDS011;43409;48.858;21.906;2022-07-23T11:00:36;6.60;;;3.45;;
57573;SDS011;43409;48.858;21.906;2022-07-23T11:03:03;3.83;;;3.53;;
57573;SDS011;43409;48.858;21.906;2022-07-23T11:05:41;6.47;;;3.45;;
57573;SDS011;43409;48.858;21.906;2022-07-23T11:10:52;6.50;;;3.53;;
57573;SDS011;43409;48.858;21.906;2022-07-23T11:13:40;5.65;;;3.70;;
57573;SDS011;43409;48.858;21.906;2022-07-23T11:32:17;5.68;;;3.30;;
57573;SDS011;43409;48.858;21.906;2022-07-23T11:34:49;5.93;;;3.45;;
57573;SDS011;43409;48.858;21.906;2022-07-23T11:37:28;4.97;;;3.28;;
57573;SDS011;43409;48.858;21.906;2022-07-23T11:39:57;6.68;;;3.10;;
57573;SDS011;43409;48.858;21.906;2022-07-23T11:42:23;4.28;;;3.97;;
57573;SDS011;43409;48.858;21.906;2022-07-23T11:44:49;6.20;;;3.30;;
57573;SDS011;43409;48.858;21.906;2022-07-23T11:47:14;3.47;;;3.20;;
57573;SDS011;43409;48.858;21.906;2022-07-23T11:50:02;4.35;;;3.90;;
57573;SDS011;43409;48.858;21.906;2022-07-23T11:52:29;4.25;;;3.95;;
57573;SDS011;43409;48.858;21.906;2022-07-23T11:54:58;8.38;;;3.50;;
57573;SDS011;43409;48.858;21.906;2022-07-23T11:57:32;8.05;;;3.47;;
57573;SDS011;43409;48.858;21.906;2022-07-23T12:00:05;4.95;;;4.05;;
57573;SDS011;43409;48.858;21.906;2022-07-23T12:02:31;4.30;;;3.97;;
57573;SDS011;43409;48.858;21.906;2022-07-23T12:04:56;4.05;;;3.75;;
57573;SDS011;43409;48.858;21.906;2022-07-23T12:07:23;4.88;;;4.40;;
57573;SDS011;43409;48.858;21.906;2022-07-23T12:12:45;4.50;;;3.88;;
57573;SDS011;43409;48.858;21.906;2022-07-23T12:15:15;8.55;;;4.32;;
57573;SDS011;43409;48.858;21.906;2022-07-23T12:17:44;8.63;;;4.75;;
57573;SDS011;43409;48.858;21.906;2022-07-23T12:20:15;4.97;;;4.40;;
57573;SDS011;43409;48.858;21.906;2022-07-23T12:22:43;5.25;;;4.78;;
57573;SDS011;43409;48.858;21.906;2022-07-23T12:25:15;5.15;;;4.72;;
57573;SDS011;43409;48.858;21.906;2022-07-23T12:27:46;7.63;;;4.93;;
57573;SDS011;43409;48.858;21.906;2022-07-23T12:30:26;5.80;;;5.25;;
57573;SDS011;43409;48.858;21.906;2022-07-23T12:32:57;5.53;;;4.63;;
57573;SDS011;43409;48.858;21.906;2022-07-23T12:35:29;5.70;;;5.20;;
57573;SDS011;43409;48.858;21.906;2022-07-23T12:38:01;5.40;;;5.07;;
57573;SDS011;43409;48.858;21.906;2022-07-23T12:40:30;6.15;;;5.55;;
57573;SDS011;43409;48.858;21.906;2022-07-23T12:43:06;5.57;;;5.07;;
57573;SDS011;43409;48.858;21.906;2022-07-23T12:48:26;5.88;;;5.28;;
57573;SDS011;43409;48.858;21.906;2022-07-23T12:50:54;5.95;;;5.45;;
57573;SDS011;43409;48.858;21.906;2022-07-23T12:56:07;8.50;;;5.55;;
57573;SDS011;43409;48.858;21.906;2022-07-23T12:58:42;6.32;;;5.75;;
57573;SDS011;43409;48.858;21.906;2022-07-23T13:01:08;6.50;;;5.53;;
57573;SDS011;43409;48.858;21.906;2022-07-23T13:03:36;6.13;;;5.57;;
57573;SDS011;43409;48.858;21.906;2022-07-23T13:06:04;7.57;;;5.95;;
57573;SDS011;43409;48.858;21.906;2022-07-23T13:08:32;8.77;;;5.63;;
57573;SDS011;43409;48.858;21.906;2022-07-23T13:10:59;6.85;;;6.10;;
57573;SDS011;43409;48.858;21.906;2022-07-23T13:13:26;6.53;;;5.60;;
57573;SDS011;43409;48.858;21.906;2022-07-23T13:15:53;6.65;;;5.70;;
57573;SDS011;43409;48.858;21.906;2022-07-23T13:18:19;8.38;;;5.68;;
57573;SDS011;43409;48.858;21.906;2022-07-23T13:20:46;6.82;;;5.20;;
57573;SDS011;43409;48.858;21.906;2022-07-23T13:23:12;5.85;;;5.47;;
57573;SDS011;43409;48.858;21.906;2022-07-23T13:25:38;5.80;;;5.30;;
57573;SDS011;43409;48.858;21.906;2022-07-23T13:28:04;6.47;;;5.20;;
57573;SDS011;43409;48.858;21.906;2022-07-23T13:30:29;5.78;;;5.28;;
57573;SDS011;43409;48.858;21.906;2022-07-23T13:32:55;6.30;;;5.30;;
57573;SDS011;43409;48.858;21.906;2022-07-23T13:35:20;6.75;;;5.22;;
57573;SDS011;43409;48.858;21.906;2022-07-23T13:37:46;5.57;;;5.07;;
57573;SDS011;43409;48.858;21.906;2022-07-23T13:40:12;7.63;;;4.88;;
57573;SDS011;43409;48.858;21.906;2022-07-23T13:42:38;7.18;;;5.32;;
57573;SDS011;43409;48.858;21.906;2022-07-23T13:45:03;6.97;;;5.03;;
57573;SDS011;43409;48.858;21.906;2022-07-23T13:47:30;7.40;;;4.85;;
57573;SDS011;43409;48.858;21.906;2022-07-23T13:49:56;5.25;;;4.80;;
57573;SDS011;43409;48.858;21.906;2022-07-23T13:52:22;5.30;;;4.80;;
57573;SDS011;43409;48.858;21.906;2022-07-23T13:54:47;6.72;;;4.60;;
57573;SDS011;43409;48.858;21.906;2022-07-23T13:57:13;9.05;;;4.50;;
57573;SDS011;43409;48.858;21.906;2022-07-23T13:59:38;5.40;;;4.90;;
57573;SDS011;43409;48.858;21.906;2022-07-23T14:02:04;5.25;;;4.40;;
57573;SDS011;43409;48.858;21.906;2022-07-23T14:04:30;5.35;;;4.85;;
57573;SDS011;43409;48.858;21.906;2022-07-23T14:06:56;6.45;;;5.10;;
57573;SDS011;43409;48.858;21.906;2022-07-23T14:09:21;5.68;;;5.20;;
57573;SDS011;43409;48.858;21.906;2022-07-23T14:11:48;5.22;;;4.60;;
57573;SDS011;43409;48.858;21.906;2022-07-23T14:14:14;7.63;;;4.72;;
57573;SDS011;43409;48.858;21.906;2022-07-23T14:16:40;6.57;;;4.60;;
57573;SDS011;43409;48.858;21.906;2022-07-23T14:19:05;7.68;;;4.45;;
57573;SDS011;43409;48.858;21.906;2022-07-23T14:21:31;7.40;;;5.05;;
57573;SDS011;43409;48.858;21.906;2022-07-23T14:23:56;4.80;;;4.40;;
57573;SDS011;43409;48.858;21.906;2022-07-23T14:26:21;5.30;;;4.88;;
57573;SDS011;43409;48.858;21.906;2022-07-23T14:28:47;5.50;;;4.47;;
57573;SDS011;43409;48.858;21.906;2022-07-23T14:31:12;4.80;;;4.40;;
57573;SDS011;43409;48.858;21.906;2022-07-23T14:33:38;4.88;;;4.38;;
57573;SDS011;43409;48.858;21.906;2022-07-23T14:36:03;11.65;;;4.93;;
57573;SDS011;43409;48.858;21.906;2022-07-23T14:38:29;4.88;;;4.50;;
57573;SDS011;43409;48.858;21.906;2022-07-23T14:40:55;5.05;;;4.65;;
57573;SDS011;43409;48.858;21.906;2022-07-23T14:43:21;7.70;;;4.25;;
57573;SDS011;43409;48.858;21.906;2022-07-23T14:45:47;4.57;;;4.25;;
57573;SDS011;43409;48.858;21.906;2022-07-23T14:48:12;6.63;;;4.70;;
57573;SDS011;43409;48.858;21.906;2022-07-23T14:50:38;9.57;;;4.60;;
57573;SDS011;43409;48.858;21.906;2022-07-23T14:53:03;5.80;;;4.20;;
57573;SDS011;43409;48.858;21.906;2022-07-23T14:55:32;4.47;;;4.05;;
57573;SDS011;43409;48.858;21.906;2022-07-23T14:57:58;4.63;;;4.20;;
57573;SDS011;43409;48.858;21.906;2022-07-23T15:00:23;5.65;;;4.25;;
57573;SDS011;43409;48.858;21.906;2022-07-23T15:02:50;7.25;;;4.28;;
57573;SDS011;43409;48.858;21.906;2022-07-23T15:05:16;4.43;;;4.03;;
57573;SDS011;43409;48.858;21.906;2022-07-23T15:07:41;9.15;;;4.25;;
57573;SDS011;43409;48.858;21.906;2022-07-23T15:10:07;4.57;;;3.88;;
57573;SDS011;43409;48.858;21.906;2022-07-23T15:12:32;6.07;;;3.97;;
57573;SDS011;43409;48.858;21.906;2022-07-23T15:14:58;4.72;;;4.18;;
57573;SDS011;43409;48.858;21.906;2022-07-23T15:17:24;7.15;;;3.88;;
57573;SDS011;43409;48.858;21.906;2022-07-23T15:19:49;4.22;;;3.92;;
57573;SDS011;43409;48.858;21.906;2022-07-23T15:22:15;5.70;;;3.70;;
57573;SDS011;43409;48.858;21.906;2022-07-23T15:24:41;7.90;;;3.80;;
57573;SDS011;43409;48.858;21.906;2022-07-23T15:27:07;4.80;;;4.10;;